sensor_id;sensor_type;location;lat;lon;timestamp;P1;durP1;ratioP1;P2;durP2;ratioP2
59876;SDS011;74472;51.140;17.184;2024-01-16T00:00:18;10.57;;;5.53;;
59876;SDS011;74472;51.140;17.184;2024-01-16T00:02:45;9.23;;;5.47;;
59876;SDS011;74472;51.140;17.184;2024-01-16T00:05:10;4.93;;;2.38;;
59876;SDS011;74472;51.140;17.184;2024-01-16T00:07:37;4.03;;;2.17;;
59876;SDS011;74472;51.140;17.184;2024-01-16T00:10:03;3.85;;;2.22;;
59876;SDS011;74472;51.140;17.184;2024-01-16T00:12:29;2.60;;;1.40;;
59876;SDS011;74472;51.140;17.184;2024-01-16T00:14:54;3.42;;;1.77;;
59876;SDS011;74472;51.140;17.184;2024-01-16T00:17:20;2.47;;;1.80;;
59876;SDS011;74472;51.140;17.184;2024-01-16T00:19:45;4.82;;;2.03;;
59876;SDS011;74472;51.140;17.184;2024-01-16T00:22:10;2.05;;;1.02;;
59876;SDS011;74472;51.140;17.184;2024-01-16T00:24:36;3.38;;;1.17;;
59876;SDS011;74472;51.140;17.184;2024-01-16T00:27:01;2.50;;;1.55;;
59876;SDS011;74472;51.140;17.184;2024-01-16T00:29:26;3.65;;;1.50;;
59876;SDS011;74472;51.140;17.184;2024-01-16T00:31:51;2.03;;;1.25;;
59876;SDS011;74472;51.140;17.184;2024-01-16T00:34:17;3.13;;;1.05;;
59876;SDS011;74472;51.140;17.184;2024-01-16T00:36:42;3.50;;;1.30;;
59876;SDS011;74472;51.140;17.184;2024-01-16T00:39:09;2.72;;;1.40;;
59876;SDS011;74472;51.140;17.184;2024-01-16T00:41:34;1.73;;;1.00;;
59876;SDS011;74472;51.140;17.184;2024-01-16T00:44:00;2.50;;;1.13;;
59876;SDS011;74472;51.140;17.184;2024-01-16T00:46:25;3.78;;;1.92;;
59876;SDS011;74472;51.140;17.184;2024-01-16T00:48:50;2.83;;;1.35;;
59876;SDS011;74472;51.140;17.184;2024-01-16T00:51:15;4.43;;;1.52;;
59876;SDS011;74472;51.140;17.184;2024-01-16T00:53:41;3.25;;;0.93;;
59876;SDS011;74472;51.140;17.184;2024-01-16T00:56:06;4.38;;;1.60;;
59876;SDS011;74472;51.140;17.184;2024-01-16T00:58:32;2.95;;;1.42;;
59876;SDS011;74472;51.140;17.184;2024-01-16T01:00:57;5.18;;;1.65;;
59876;SDS011;74472;51.140;17.184;2024-01-16T01:03:22;3.15;;;1.52;;
59876;SDS011;74472;51.140;17.184;2024-01-16T01:05:48;4.40;;;1.83;;
59876;SDS011;74472;51.140;17.184;2024-01-16T01:08:13;5.63;;;2.35;;
59876;SDS011;74472;51.140;17.184;2024-01-16T01:10:38;6.30;;;1.77;;
59876;SDS011;74472;51.140;17.184;2024-01-16T01:13:03;8.02;;;4.60;;
59876;SDS011;74472;51.140;17.184;2024-01-16T01:15:29;4.55;;;2.38;;
59876;SDS011;74472;51.140;17.184;2024-01-16T01:17:54;4.00;;;1.90;;
59876;SDS011;74472;51.140;17.184;2024-01-16T01:20:19;3.63;;;1.95;;
59876;SDS011;74472;51.140;17.184;2024-01-16T01:22:45;3.53;;;1.75;;
59876;SDS011;74472;51.140;17.184;2024-01-16T01:25:13;6.05;;;2.00;;
59876;SDS011;74472;51.140;17.184;2024-01-16T01:27:38;4.75;;;2.15;;
59876;SDS011;74472;51.140;17.184;2024-01-16T01:30:04;4.32;;;2.25;;
59876;SDS011;74472;51.140;17.184;2024-01-16T01:32:36;3.88;;;2.20;;
59876;SDS011;74472;51.140;17.184;2024-01-16T01:35:02;10.85;;;3.72;;
59876;SDS011;74472;51.140;17.184;2024-01-16T01:37:28;5.22;;;2.65;;
59876;SDS011;74472;51.140;17.184;2024-01-16T01:39:53;4.50;;;2.40;;
59876;SDS011;74472;51.140;17.184;2024-01-16T01:42:18;6.93;;;2.78;;
59876;SDS011;74472;51.140;17.184;2024-01-16T01:44:44;6.43;;;2.38;;
59876;SDS011;74472;51.140;17.184;2024-01-16T01:47:09;4.63;;;2.00;;
59876;SDS011;74472;51.140;17.184;2024-01-16T01:49:34;6.35;;;2.38;;
59876;SDS011;74472;51.140;17.184;2024-01-16T01:52:01;5.20;;;2.58;;
59876;SDS011;74472;51.140;17.184;2024-01-16T01:54:26;4.60;;;1.90;;
59876;SDS011;74472;51.140;17.184;2024-01-16T01:56:52;6.13;;;2.45;;
59876;SDS011;74472;51.140;17.184;2024-01-16T01:59:18;6.95;;;2.47;;
59876;SDS011;74472;51.140;17.184;2024-01-16T02:01:47;3.92;;;1.83;;
59876;SDS011;74472;51.140;17.184;2024-01-16T02:04:17;5.80;;;2.15;;
59876;SDS011;74472;51.140;17.184;2024-01-16T02:06:44;5.00;;;2.78;;
59876;SDS011;74472;51.140;17.184;2024-01-16T02:09:10;5.28;;;2.53;;
59876;SDS011;74472;51.140;17.184;2024-01-16T02:11:38;7.70;;;2.85;;
59876;SDS011;74472;51.140;17.184;2024-01-16T02:14:06;5.05;;;2.20;;
59876;SDS011;74472;51.140;17.184;2024-01-16T02:16:41;7.65;;;2.63;;
59876;SDS011;74472;51.140;17.184;2024-01-16T02:19:07;5.03;;;2.60;;
59876;SDS011;74472;51.140;17.184;2024-01-16T02:21:41;13.20;;;4.68;;
59876;SDS011;74472;51.140;17.184;2024-01-16T02:24:11;13.18;;;5.25;;
59876;SDS011;74472;51.140;17.184;2024-01-16T02:26:37;15.50;;;5.63;;
59876;SDS011;74472;51.140;17.184;2024-01-16T02:29:03;18.80;;;6.45;;
59876;SDS011;74472;51.140;17.184;2024-01-16T02:31:31;15.75;;;7.35;;
59876;SDS011;74472;51.140;17.184;2024-01-16T02:33:57;15.45;;;8.32;;
59876;SDS011;74472;51.140;17.184;2024-01-16T02:36:23;10.93;;;6.40;;
59876;SDS011;74472;51.140;17.184;2024-01-16T02:38:49;10.10;;;5.30;;
59876;SDS011;74472;51.140;17.184;2024-01-16T02:41:14;10.65;;;4.65;;
59876;SDS011;74472;51.140;17.184;2024-01-16T02:43:41;6.50;;;3.97;;
59876;SDS011;74472;51.140;17.184;2024-01-16T02:46:06;8.95;;;4.38;;
59876;SDS011;74472;51.140;17.184;2024-01-16T02:48:33;7.38;;;3.60;;
59876;SDS011;74472;51.140;17.184;2024-01-16T02:50:59;11.55;;;4.57;;
59876;SDS011;74472;51.140;17.184;2024-01-16T02:53:24;8.30;;;4.28;;
59876;SDS011;74472;51.140;17.184;2024-01-16T02:55:50;8.27;;;4.97;;
59876;SDS011;74472;51.140;17.184;2024-01-16T02:58:16;7.07;;;4.95;;
59876;SDS011;74472;51.140;17.184;2024-01-16T03:00:42;11.32;;;5.65;;
59876;SDS011;74472;51.140;17.184;2024-01-16T03:03:07;10.38;;;4.75;;
59876;SDS011;74472;51.140;17.184;2024-01-16T03:05:33;9.05;;;5.00;;
59876;SDS011;74472;51.140;17.184;2024-01-16T03:07:59;7.28;;;3.60;;
59876;SDS011;74472;51.140;17.184;2024-01-16T03:10:24;8.25;;;4.00;;
59876;SDS011;74472;51.140;17.184;2024-01-16T03:12:50;5.78;;;3.28;;
59876;SDS011;74472;51.140;17.184;2024-01-16T03:15:15;7.55;;;3.42;;
59876;SDS011;74472;51.140;17.184;2024-01-16T03:17:40;8.02;;;3.50;;
59876;SDS011;74472;51.140;17.184;2024-01-16T03:20:06;7.72;;;3.25;;
59876;SDS011;74472;51.140;17.184;2024-01-16T03:22:31;5.78;;;2.60;;
59876;SDS011;74472;51.140;17.184;2024-01-16T03:24:57;6.65;;;3.58;;
59876;SDS011;74472;51.140;17.184;2024-01-16T03:27:22;5.43;;;2.15;;
59876;SDS011;74472;51.140;17.184;2024-01-16T03:29:47;7.95;;;2.50;;
59876;SDS011;74472;51.140;17.184;2024-01-16T03:32:13;5.72;;;2.83;;
59876;SDS011;74472;51.140;17.184;2024-01-16T03:34:39;12.85;;;3.15;;
59876;SDS011;74472;51.140;17.184;2024-01-16T03:37:05;4.57;;;2.50;;
59876;SDS011;74472;51.140;17.184;2024-01-16T03:39:30;11.18;;;3.95;;
59876;SDS011;74472;51.140;17.184;2024-01-16T03:41:55;5.55;;;2.70;;
59876;SDS011;74472;51.140;17.184;2024-01-16T03:44:21;4.10;;;2.10;;
59876;SDS011;74472;51.140;17.184;2024-01-16T03:46:46;3.75;;;2.05;;
59876;SDS011;74472;51.140;17.184;2024-01-16T03:49:11;5.65;;;2.17;;
59876;SDS011;74472;51.140;17.184;2024-01-16T03:51:37;5.45;;;2.63;;
59876;SDS011;74472;51.140;17.184;2024-01-16T03:54:02;5.65;;;2.78;;
59876;SDS011;74472;51.140;17.184;2024-01-16T03:56:27;4.97;;;2.90;;
59876;SDS011;74472;51.140;17.184;2024-01-16T03:58:53;12.25;;;3.78;;
59876;SDS011;74472;51.140;17.184;2024-01-16T04:01:18;9.02;;;5.03;;
59876;SDS011;74472;51.140;17.184;2024-01-16T04:03:43;20.80;;;9.52;;
59876;SDS011;74472;51.140;17.184;2024-01-16T04:06:18;13.93;;;7.47;;
59876;SDS011;74472;51.140;17.184;2024-01-16T04:08:44;16.88;;;7.55;;
59876;SDS011;74472;51.140;17.184;2024-01-16T04:11:12;16.70;;;5.13;;
59876;SDS011;74472;51.140;17.184;2024-01-16T04:13:38;10.27;;;3.28;;
59876;SDS011;74472;51.140;17.184;2024-01-16T04:16:05;12.35;;;3.30;;
59876;SDS011;74472;51.140;17.184;2024-01-16T04:18:32;8.27;;;3.72;;
59876;SDS011;74472;51.140;17.184;2024-01-16T04:21:00;7.47;;;3.83;;
59876;SDS011;74472;51.140;17.184;2024-01-16T04:23:25;7.63;;;3.33;;
59876;SDS011;74472;51.140;17.184;2024-01-16T04:25:51;4.63;;;2.05;;
59876;SDS011;74472;51.140;17.184;2024-01-16T04:28:16;3.63;;;1.83;;
59876;SDS011;74472;51.140;17.184;2024-01-16T04:30:41;3.63;;;2.00;;
59876;SDS011;74472;51.140;17.184;2024-01-16T04:33:07;2.63;;;1.73;;
59876;SDS011;74472;51.140;17.184;2024-01-16T04:35:32;5.72;;;2.40;;
59876;SDS011;74472;51.140;17.184;2024-01-16T04:37:57;7.80;;;2.83;;
59876;SDS011;74472;51.140;17.184;2024-01-16T04:40:22;13.40;;;5.50;;
59876;SDS011;74472;51.140;17.184;2024-01-16T04:42:48;10.05;;;4.40;;
59876;SDS011;74472;51.140;17.184;2024-01-16T04:45:13;7.53;;;4.00;;
59876;SDS011;74472;51.140;17.184;2024-01-16T04:47:38;11.20;;;5.82;;
59876;SDS011;74472;51.140;17.184;2024-01-16T04:50:04;16.15;;;6.18;;
59876;SDS011;74472;51.140;17.184;2024-01-16T04:52:29;25.13;;;9.80;;
59876;SDS011;74472;51.140;17.184;2024-01-16T04:54:54;15.20;;;7.05;;
59876;SDS011;74472;51.140;17.184;2024-01-16T04:57:20;9.18;;;3.58;;
59876;SDS011;74472;51.140;17.184;2024-01-16T04:59:45;15.65;;;5.00;;
59876;SDS011;74472;51.140;17.184;2024-01-16T05:02:10;14.75;;;8.02;;
59876;SDS011;74472;51.140;17.184;2024-01-16T05:04:36;18.92;;;8.05;;
59876;SDS011;74472;51.140;17.184;2024-01-16T05:07:03;9.05;;;4.32;;
59876;SDS011;74472;51.140;17.184;2024-01-16T05:09:28;7.85;;;2.78;;
59876;SDS011;74472;51.140;17.184;2024-01-16T05:11:54;6.20;;;2.97;;
59876;SDS011;74472;51.140;17.184;2024-01-16T05:14:19;4.43;;;2.47;;
59876;SDS011;74472;51.140;17.184;2024-01-16T05:16:47;6.15;;;1.83;;
59876;SDS011;74472;51.140;17.184;2024-01-16T05:19:12;3.58;;;1.48;;
59876;SDS011;74472;51.140;17.184;2024-01-16T05:21:40;1.48;;;1.00;;
59876;SDS011;74472;51.140;17.184;2024-01-16T05:24:05;5.45;;;2.35;;
59876;SDS011;74472;51.140;17.184;2024-01-16T05:26:31;8.73;;;5.05;;
59876;SDS011;74472;51.140;17.184;2024-01-16T05:28:56;8.05;;;3.90;;
59876;SDS011;74472;51.140;17.184;2024-01-16T05:31:21;8.07;;;3.70;;
59876;SDS011;74472;51.140;17.184;2024-01-16T05:33:47;6.00;;;4.07;;
59876;SDS011;74472;51.140;17.184;2024-01-16T05:36:12;7.38;;;4.18;;
59876;SDS011;74472;51.140;17.184;2024-01-16T05:38:37;6.18;;;2.80;;
59876;SDS011;74472;51.140;17.184;2024-01-16T05:41:02;7.88;;;4.10;;
59876;SDS011;74472;51.140;17.184;2024-01-16T05:43:28;9.35;;;4.03;;
59876;SDS011;74472;51.140;17.184;2024-01-16T05:45:54;5.38;;;3.13;;
59876;SDS011;74472;51.140;17.184;2024-01-16T05:48:20;7.55;;;3.53;;
59876;SDS011;74472;51.140;17.184;2024-01-16T05:50:45;9.48;;;4.85;;
59876;SDS011;74472;51.140;17.184;2024-01-16T05:53:10;10.30;;;3.90;;
59876;SDS011;74472;51.140;17.184;2024-01-16T05:55:36;10.52;;;4.28;;
59876;SDS011;74472;51.140;17.184;2024-01-16T05:58:02;7.57;;;2.92;;
59876;SDS011;74472;51.140;17.184;2024-01-16T06:00:27;5.38;;;2.03;;
59876;SDS011;74472;51.140;17.184;2024-01-16T06:02:52;4.55;;;1.60;;
59876;SDS011;74472;51.140;17.184;2024-01-16T06:05:18;8.85;;;2.53;;
59876;SDS011;74472;51.140;17.184;2024-01-16T06:07:43;6.30;;;3.05;;
59876;SDS011;74472;51.140;17.184;2024-01-16T06:10:11;5.22;;;3.28;;
59876;SDS011;74472;51.140;17.184;2024-01-16T06:12:37;4.60;;;2.35;;
59876;SDS011;74472;51.140;17.184;2024-01-16T06:15:02;3.90;;;1.98;;
59876;SDS011;74472;51.140;17.184;2024-01-16T06:17:28;8.00;;;2.05;;
59876;SDS011;74472;51.140;17.184;2024-01-16T06:19:53;3.13;;;1.70;;
59876;SDS011;74472;51.140;17.184;2024-01-16T06:22:19;4.03;;;1.33;;
59876;SDS011;74472;51.140;17.184;2024-01-16T06:24:44;5.18;;;1.83;;
59876;SDS011;74472;51.140;17.184;2024-01-16T06:27:09;3.00;;;1.42;;
59876;SDS011;74472;51.140;17.184;2024-01-16T06:29:35;5.57;;;2.28;;
59876;SDS011;74472;51.140;17.184;2024-01-16T06:32:00;6.55;;;2.20;;
59876;SDS011;74472;51.140;17.184;2024-01-16T06:34:26;3.22;;;1.85;;
59876;SDS011;74472;51.140;17.184;2024-01-16T06:36:52;6.63;;;2.50;;
59876;SDS011;74472;51.140;17.184;2024-01-16T06:39:17;4.43;;;1.70;;
59876;SDS011;74472;51.140;17.184;2024-01-16T06:41:43;5.82;;;2.97;;
59876;SDS011;74472;51.140;17.184;2024-01-16T06:44:08;4.32;;;1.85;;
59876;SDS011;74472;51.140;17.184;2024-01-16T06:46:33;6.32;;;1.90;;
59876;SDS011;74472;51.140;17.184;2024-01-16T06:48:59;5.68;;;4.07;;
59876;SDS011;74472;51.140;17.184;2024-01-16T06:51:25;7.05;;;2.25;;
59876;SDS011;74472;51.140;17.184;2024-01-16T06:53:50;6.07;;;2.35;;
59876;SDS011;74472;51.140;17.184;2024-01-16T06:56:16;7.45;;;2.28;;
59876;SDS011;74472;51.140;17.184;2024-01-16T06:58:41;6.70;;;2.75;;
59876;SDS011;74472;51.140;17.184;2024-01-16T07:01:06;4.88;;;2.30;;
59876;SDS011;74472;51.140;17.184;2024-01-16T07:03:34;8.27;;;4.38;;
59876;SDS011;74472;51.140;17.184;2024-01-16T07:05:59;6.38;;;2.95;;
59876;SDS011;74472;51.140;17.184;2024-01-16T07:08:24;4.28;;;2.40;;
59876;SDS011;74472;51.140;17.184;2024-01-16T07:10:50;6.90;;;3.20;;
59876;SDS011;74472;51.140;17.184;2024-01-16T07:13:15;4.70;;;2.88;;
59876;SDS011;74472;51.140;17.184;2024-01-16T07:15:41;4.80;;;2.33;;
59876;SDS011;74472;51.140;17.184;2024-01-16T07:18:06;5.05;;;2.28;;
59876;SDS011;74472;51.140;17.184;2024-01-16T07:20:32;7.32;;;2.63;;
59876;SDS011;74472;51.140;17.184;2024-01-16T07:22:57;6.40;;;2.53;;
59876;SDS011;74472;51.140;17.184;2024-01-16T07:25:22;5.65;;;2.35;;
59876;SDS011;74472;51.140;17.184;2024-01-16T07:27:48;6.88;;;3.10;;
59876;SDS011;74472;51.140;17.184;2024-01-16T07:30:14;5.97;;;3.45;;
59876;SDS011;74472;51.140;17.184;2024-01-16T07:32:40;8.85;;;3.47;;
59876;SDS011;74472;51.140;17.184;2024-01-16T07:35:05;8.70;;;3.95;;
59876;SDS011;74472;51.140;17.184;2024-01-16T07:37:31;19.60;;;8.07;;
59876;SDS011;74472;51.140;17.184;2024-01-16T07:39:56;20.67;;;8.35;;
59876;SDS011;74472;51.140;17.184;2024-01-16T07:42:21;20.40;;;9.48;;
59876;SDS011;74472;51.140;17.184;2024-01-16T07:44:49;33.22;;;15.32;;
59876;SDS011;74472;51.140;17.184;2024-01-16T07:47:16;33.08;;;16.02;;
59876;SDS011;74472;51.140;17.184;2024-01-16T07:49:41;34.60;;;17.55;;
59876;SDS011;74472;51.140;17.184;2024-01-16T07:52:07;36.17;;;17.85;;
59876;SDS011;74472;51.140;17.184;2024-01-16T07:54:32;31.33;;;18.23;;
59876;SDS011;74472;51.140;17.184;2024-01-16T07:56:57;43.40;;;19.83;;
59876;SDS011;74472;51.140;17.184;2024-01-16T07:59:23;49.42;;;23.02;;
59876;SDS011;74472;51.140;17.184;2024-01-16T08:01:48;43.42;;;21.33;;
59876;SDS011;74472;51.140;17.184;2024-01-16T08:04:14;41.58;;;19.85;;
59876;SDS011;74472;51.140;17.184;2024-01-16T08:06:39;28.23;;;14.88;;
59876;SDS011;74472;51.140;17.184;2024-01-16T08:09:05;25.40;;;12.57;;
59876;SDS011;74472;51.140;17.184;2024-01-16T08:11:31;23.40;;;13.77;;
59876;SDS011;74472;51.140;17.184;2024-01-16T08:13:56;20.15;;;10.10;;
59876;SDS011;74472;51.140;17.184;2024-01-16T08:16:21;18.48;;;9.10;;
59876;SDS011;74472;51.140;17.184;2024-01-16T08:18:47;21.00;;;6.93;;
59876;SDS011;74472;51.140;17.184;2024-01-16T08:21:12;11.85;;;6.47;;
59876;SDS011;74472;51.140;17.184;2024-01-16T08:23:38;13.93;;;7.07;;
59876;SDS011;74472;51.140;17.184;2024-01-16T08:26:03;10.63;;;5.30;;
59876;SDS011;74472;51.140;17.184;2024-01-16T08:28:29;7.78;;;4.60;;
59876;SDS011;74472;51.140;17.184;2024-01-16T08:30:55;8.68;;;4.85;;
59876;SDS011;74472;51.140;17.184;2024-01-16T08:33:20;6.05;;;3.25;;
59876;SDS011;74472;51.140;17.184;2024-01-16T08:35:45;7.22;;;3.50;;
59876;SDS011;74472;51.140;17.184;2024-01-16T08:38:11;7.32;;;3.85;;
59876;SDS011;74472;51.140;17.184;2024-01-16T08:40:36;10.57;;;4.82;;
59876;SDS011;74472;51.140;17.184;2024-01-16T08:43:01;18.67;;;9.75;;
59876;SDS011;74472;51.140;17.184;2024-01-16T08:45:28;25.05;;;10.13;;
59876;SDS011;74472;51.140;17.184;2024-01-16T08:47:54;19.85;;;10.80;;
59876;SDS011;74472;51.140;17.184;2024-01-16T08:50:19;18.90;;;7.75;;
59876;SDS011;74472;51.140;17.184;2024-01-16T08:52:44;17.60;;;6.78;;
59876;SDS011;74472;51.140;17.184;2024-01-16T08:55:10;12.32;;;5.28;;
59876;SDS011;74472;51.140;17.184;2024-01-16T08:57:36;8.80;;;5.75;;
59876;SDS011;74472;51.140;17.184;2024-01-16T09:00:02;8.32;;;4.85;;
59876;SDS011;74472;51.140;17.184;2024-01-16T09:02:29;12.95;;;6.00;;
59876;SDS011;74472;51.140;17.184;2024-01-16T09:04:55;11.63;;;6.85;;
59876;SDS011;74472;51.140;17.184;2024-01-16T09:07:21;14.85;;;8.23;;
59876;SDS011;74472;51.140;17.184;2024-01-16T09:09:46;12.38;;;7.18;;
59876;SDS011;74472;51.140;17.184;2024-01-16T09:12:11;8.13;;;5.65;;
59876;SDS011;74472;51.140;17.184;2024-01-16T09:14:37;8.52;;;5.05;;
59876;SDS011;74472;51.140;17.184;2024-01-16T09:17:02;5.88;;;4.35;;
59876;SDS011;74472;51.140;17.184;2024-01-16T09:19:28;8.63;;;5.30;;
59876;SDS011;74472;51.140;17.184;2024-01-16T09:21:54;7.68;;;4.45;;
59876;SDS011;74472;51.140;17.184;2024-01-16T09:24:20;8.70;;;4.90;;
59876;SDS011;74472;51.140;17.184;2024-01-16T09:26:45;10.02;;;5.35;;
59876;SDS011;74472;51.140;17.184;2024-01-16T09:29:10;8.07;;;5.10;;
59876;SDS011;74472;51.140;17.184;2024-01-16T09:31:36;8.00;;;4.50;;
59876;SDS011;74472;51.140;17.184;2024-01-16T09:34:02;10.23;;;5.70;;
59876;SDS011;74472;51.140;17.184;2024-01-16T09:36:28;8.50;;;5.88;;
59876;SDS011;74472;51.140;17.184;2024-01-16T09:38:54;7.35;;;4.78;;
59876;SDS011;74472;51.140;17.184;2024-01-16T09:41:19;8.93;;;5.15;;
59876;SDS011;74472;51.140;17.184;2024-01-16T09:43:44;11.80;;;7.43;;
59876;SDS011;74472;51.140;17.184;2024-01-16T09:46:12;13.23;;;6.32;;
59876;SDS011;74472;51.140;17.184;2024-01-16T09:48:40;8.85;;;5.90;;
59876;SDS011;74472;51.140;17.184;2024-01-16T09:51:09;6.97;;;4.95;;
59876;SDS011;74472;51.140;17.184;2024-01-16T09:53:39;12.35;;;4.82;;
59876;SDS011;74472;51.140;17.184;2024-01-16T09:56:06;19.95;;;10.65;;
59876;SDS011;74472;51.140;17.184;2024-01-16T09:58:41;9.18;;;6.47;;
59876;SDS011;74472;51.140;17.184;2024-01-16T10:01:08;9.57;;;6.28;;
59876;SDS011;74472;51.140;17.184;2024-01-16T10:03:34;15.43;;;8.57;;
59876;SDS011;74472;51.140;17.184;2024-01-16T10:06:06;13.75;;;8.27;;
59876;SDS011;74472;51.140;17.184;2024-01-16T10:08:32;14.88;;;7.38;;
59876;SDS011;74472;51.140;17.184;2024-01-16T10:10:58;22.58;;;10.15;;
59876;SDS011;74472;51.140;17.184;2024-01-16T10:13:24;17.63;;;9.00;;
59876;SDS011;74472;51.140;17.184;2024-01-16T10:15:50;9.15;;;5.63;;
59876;SDS011;74472;51.140;17.184;2024-01-16T10:18:27;9.45;;;5.20;;
59876;SDS011;74472;51.140;17.184;2024-01-16T10:20:57;13.68;;;6.70;;
59876;SDS011;74472;51.140;17.184;2024-01-16T10:23:26;9.13;;;4.88;;
59876;SDS011;74472;51.140;17.184;2024-01-16T10:26:05;10.00;;;4.28;;
59876;SDS011;74472;51.140;17.184;2024-01-16T10:28:34;4.88;;;2.97;;
59876;SDS011;74472;51.140;17.184;2024-01-16T10:31:07;5.03;;;3.13;;
59876;SDS011;74472;51.140;17.184;2024-01-16T10:33:34;6.63;;;2.67;;
59876;SDS011;74472;51.140;17.184;2024-01-16T10:38:39;8.93;;;4.70;;
59876;SDS011;74472;51.140;17.184;2024-01-16T10:41:26;12.35;;;6.20;;
59876;SDS011;74472;51.140;17.184;2024-01-16T10:46:45;6.78;;;4.63;;
59876;SDS011;74472;51.140;17.184;2024-01-16T10:49:11;6.57;;;3.80;;
59876;SDS011;74472;51.140;17.184;2024-01-16T10:51:36;7.30;;;3.75;;
59876;SDS011;74472;51.140;17.184;2024-01-16T10:54:04;8.25;;;4.38;;
59876;SDS011;74472;51.140;17.184;2024-01-16T10:56:33;7.38;;;4.00;;
59876;SDS011;74472;51.140;17.184;2024-01-16T10:59:02;8.05;;;3.75;;
59876;SDS011;74472;51.140;17.184;2024-01-16T11:01:49;7.75;;;2.63;;
59876;SDS011;74472;51.140;17.184;2024-01-16T11:04:19;5.28;;;3.13;;
59876;SDS011;74472;51.140;17.184;2024-01-16T11:06:46;5.30;;;2.60;;
59876;SDS011;74472;51.140;17.184;2024-01-16T11:09:12;6.63;;;2.83;;
59876;SDS011;74472;51.140;17.184;2024-01-16T11:11:43;12.35;;;6.20;;
59876;SDS011;74472;51.140;17.184;2024-01-16T11:14:10;17.35;;;8.05;;
59876;SDS011;74472;51.140;17.184;2024-01-16T11:16:36;14.50;;;8.65;;
59876;SDS011;74472;51.140;17.184;2024-01-16T11:19:04;12.23;;;6.97;;
59876;SDS011;74472;51.140;17.184;2024-01-16T11:21:31;10.05;;;6.05;;
59876;SDS011;74472;51.140;17.184;2024-01-16T11:23:57;9.45;;;5.28;;
59876;SDS011;74472;51.140;17.184;2024-01-16T11:26:32;10.90;;;5.00;;
59876;SDS011;74472;51.140;17.184;2024-01-16T11:31:51;10.35;;;4.28;;
59876;SDS011;74472;51.140;17.184;2024-01-16T11:34:52;6.60;;;3.78;;
59876;SDS011;74472;51.140;17.184;2024-01-16T11:37:06;7.72;;;4.57;;
59876;SDS011;74472;51.140;17.184;2024-01-16T11:39:32;11.38;;;5.00;;
59876;SDS011;74472;51.140;17.184;2024-01-16T11:41:58;8.68;;;4.85;;
59876;SDS011;74472;51.140;17.184;2024-01-16T11:47:08;10.43;;;6.00;;
59876;SDS011;74472;51.140;17.184;2024-01-16T11:49:39;13.67;;;6.10;;
59876;SDS011;74472;51.140;17.184;2024-01-16T11:52:05;8.98;;;5.13;;
59876;SDS011;74472;51.140;17.184;2024-01-16T11:54:32;14.07;;;8.43;;
59876;SDS011;74472;51.140;17.184;2024-01-16T12:00:05;7.57;;;4.90;;
59876;SDS011;74472;51.140;17.184;2024-01-16T12:02:49;9.18;;;4.72;;
59876;SDS011;74472;51.140;17.184;2024-01-16T12:05:17;6.88;;;3.95;;
59876;SDS011;74472;51.140;17.184;2024-01-16T12:07:48;9.65;;;4.13;;
59876;SDS011;74472;51.140;17.184;2024-01-16T12:10:21;11.30;;;4.85;;
59876;SDS011;74472;51.140;17.184;2024-01-16T12:12:48;7.50;;;3.95;;
59876;SDS011;74472;51.140;17.184;2024-01-16T12:15:14;8.30;;;3.38;;
59876;SDS011;74472;51.140;17.184;2024-01-16T12:17:57;9.98;;;4.47;;
59876;SDS011;74472;51.140;17.184;2024-01-16T12:20:26;8.02;;;3.85;;
59876;SDS011;74472;51.140;17.184;2024-01-16T12:22:53;6.03;;;3.58;;
59876;SDS011;74472;51.140;17.184;2024-01-16T12:25:21;8.90;;;4.28;;
59876;SDS011;74472;51.140;17.184;2024-01-16T12:28:02;10.95;;;5.78;;
59876;SDS011;74472;51.140;17.184;2024-01-16T12:30:34;9.05;;;6.10;;
59876;SDS011;74472;51.140;17.184;2024-01-16T12:35:44;16.52;;;8.63;;
59876;SDS011;74472;51.140;17.184;2024-01-16T12:38:12;13.23;;;7.63;;
59876;SDS011;74472;51.140;17.184;2024-01-16T12:40:42;9.32;;;5.18;;
59876;SDS011;74472;51.140;17.184;2024-01-16T12:43:12;11.10;;;5.95;;
59876;SDS011;74472;51.140;17.184;2024-01-16T12:45:38;7.93;;;4.53;;
59876;SDS011;74472;51.140;17.184;2024-01-16T12:48:03;7.90;;;4.03;;
59876;SDS011;74472;51.140;17.184;2024-01-16T12:50:30;10.48;;;7.43;;
59876;SDS011;74472;51.140;17.184;2024-01-16T12:53:09;14.20;;;9.88;;
59876;SDS011;74472;51.140;17.184;2024-01-16T12:55:37;7.38;;;6.07;;
59876;SDS011;74472;51.140;17.184;2024-01-16T12:58:18;11.13;;;6.20;;
59876;SDS011;74472;51.140;17.184;2024-01-16T13:00:45;7.93;;;4.40;;
59876;SDS011;74472;51.140;17.184;2024-01-16T13:03:19;6.25;;;5.28;;
59876;SDS011;74472;51.140;17.184;2024-01-16T13:05:55;6.00;;;4.30;;
59876;SDS011;74472;51.140;17.184;2024-01-16T13:08:22;8.85;;;5.82;;
59876;SDS011;74472;51.140;17.184;2024-01-16T13:11:08;13.32;;;6.50;;
59876;SDS011;74472;51.140;17.184;2024-01-16T13:13:37;13.85;;;7.60;;
59876;SDS011;74472;51.140;17.184;2024-01-16T13:16:04;16.25;;;10.13;;
59876;SDS011;74472;51.140;17.184;2024-01-16T13:18:35;13.63;;;9.20;;
59876;SDS011;74472;51.140;17.184;2024-01-16T13:21:01;11.55;;;7.28;;
59876;SDS011;74472;51.140;17.184;2024-01-16T13:23:26;11.07;;;8.05;;
59876;SDS011;74472;51.140;17.184;2024-01-16T13:25:53;17.98;;;8.77;;
59876;SDS011;74472;51.140;17.184;2024-01-16T13:28:27;19.77;;;9.77;;
59876;SDS011;74472;51.140;17.184;2024-01-16T13:30:53;15.30;;;7.45;;
59876;SDS011;74472;51.140;17.184;2024-01-16T13:33:18;18.85;;;8.93;;
59876;SDS011;74472;51.140;17.184;2024-01-16T13:35:44;18.48;;;8.68;;
59876;SDS011;74472;51.140;17.184;2024-01-16T13:38:12;19.70;;;13.38;;
59876;SDS011;74472;51.140;17.184;2024-01-16T13:40:40;20.98;;;12.43;;
59876;SDS011;74472;51.140;17.184;2024-01-16T13:43:06;19.88;;;11.60;;
59876;SDS011;74472;51.140;17.184;2024-01-16T13:45:32;12.63;;;8.20;;
59876;SDS011;74472;51.140;17.184;2024-01-16T13:47:58;13.35;;;7.28;;
59876;SDS011;74472;51.140;17.184;2024-01-16T13:50:23;11.25;;;7.70;;
59876;SDS011;74472;51.140;17.184;2024-01-16T13:52:49;12.15;;;7.18;;
59876;SDS011;74472;51.140;17.184;2024-01-16T13:55:14;12.63;;;8.10;;
59876;SDS011;74472;51.140;17.184;2024-01-16T13:57:40;21.67;;;10.63;;
59876;SDS011;74472;51.140;17.184;2024-01-16T14:00:06;19.58;;;10.00;;
59876;SDS011;74472;51.140;17.184;2024-01-16T14:02:38;22.58;;;10.82;;
59876;SDS011;74472;51.140;17.184;2024-01-16T14:05:05;18.70;;;10.00;;
59876;SDS011;74472;51.140;17.184;2024-01-16T14:07:31;16.33;;;9.00;;
59876;SDS011;74472;51.140;17.184;2024-01-16T14:09:56;16.77;;;8.55;;
59876;SDS011;74472;51.140;17.184;2024-01-16T14:12:21;18.10;;;8.55;;
59876;SDS011;74472;51.140;17.184;2024-01-16T14:14:48;15.77;;;8.48;;
59876;SDS011;74472;51.140;17.184;2024-01-16T14:17:13;14.75;;;9.38;;
59876;SDS011;74472;51.140;17.184;2024-01-16T14:19:38;18.55;;;8.82;;
59876;SDS011;74472;51.140;17.184;2024-01-16T14:22:04;15.02;;;8.73;;
59876;SDS011;74472;51.140;17.184;2024-01-16T14:24:30;14.15;;;9.30;;
59876;SDS011;74472;51.140;17.184;2024-01-16T14:26:56;13.88;;;8.63;;
59876;SDS011;74472;51.140;17.184;2024-01-16T14:29:24;25.92;;;18.25;;
59876;SDS011;74472;51.140;17.184;2024-01-16T14:31:51;21.77;;;12.65;;
59876;SDS011;74472;51.140;17.184;2024-01-16T14:34:17;25.33;;;15.95;;
59876;SDS011;74472;51.140;17.184;2024-01-16T14:36:42;23.73;;;14.35;;
59876;SDS011;74472;51.140;17.184;2024-01-16T14:39:08;24.02;;;16.33;;
59876;SDS011;74472;51.140;17.184;2024-01-16T14:41:38;17.40;;;9.35;;